Time;durP1;ratioP1;P1;durP2;ratioP2;P2;SDS_P1;SDS_P2;PMS_P1;PMS_P2;Temp;Humidity;BMP_temperature;BMP_pressure;BME280_temperature;BME280_humidity;BME280_pressure;Samples;Min_cycle;Max_cycle;Signal;HPM_P1;HPM_P2
2023/09/18 00:01:42;;;;;;;0.10;0.10;;;;;;;;;;4840915;29;20504;-86
2023/09/18 00:04:08;;;;;;;0.10;0.10;;;;;;;;;;4840685;29;20136;-87
2023/09/18 00:06:34;;;;;;;0.10;0.10;;;;;;;;;;4840711;29;20057;-86
2023/09/18 00:09:00;;;;;;;0.10;0.10;;;;;;;;;;4825597;29;20049;-86
2023/09/18 00:11:25;;;;;;;0.10;0.10;;;;;;;;;;4840585;29;20045;-86
2023/09/18 00:13:51;;;;;;;0.10;0.10;;;;;;;;;;4840479;29;20037;-85
2023/09/18 00:16:17;;;;;;;0.13;0.13;;;;;;;;;;4825457;29;20077;-85
2023/09/18 00:18:44;;;;;;;0.10;0.10;;;;;;;;;;4841859;29;20045;-87
2023/09/18 00:21:10;;;;;;;0.10;0.10;;;;;;;;;;4825399;29;20086;-85
2023/09/18 00:23:39;;;;;;;0.10;0.10;;;;;;;;;;4825379;29;20132;-85
2023/09/18 00:26:06;;;;;;;0.10;0.10;;;;;;;;;;4825559;29;20062;-85
2023/09/18 00:28:32;;;;;;;0.10;0.10;;;;;;;;;;4840308;29;20555;-85
2023/09/18 00:30:58;;;;;;;0.20;0.20;;;;;;;;;;4840382;29;20377;-85
2023/09/18 00:33:24;;;;;;;0.20;0.20;;;;;;;;;;4840409;29;20077;-86
2023/09/18 00:35:50;;;;;;;0.10;0.10;;;;;;;;;;4840204;29;20102;-85
2023/09/18 00:38:16;;;;;;;0.10;0.10;;;;;;;;;;4840464;29;20050;-85
2023/09/18 00:40:42;;;;;;;0.20;0.20;;;;;;;;;;4825439;29;20129;-85
2023/09/18 00:43:09;;;;;;;0.10;0.10;;;;;;;;;;4840200;29;20585;-86
2023/09/18 00:45:35;;;;;;;0.10;0.10;;;;;;;;;;4840170;29;20129;-86
2023/09/18 00:48:01;;;;;;;0.10;0.10;;;;;;;;;;4809927;29;20046;-86
2023/09/18 00:50:27;;;;;;;0.10;0.10;;;;;;;;;;4825550;29;20057;-86
2023/09/18 00:52:53;;;;;;;0.10;0.10;;;;;;;;;;4840124;29;20137;-86
2023/09/18 00:55:19;;;;;;;0.10;0.10;;;;;;;;;;4839979;29;20053;-85
2023/09/18 00:57:45;;;;;;;0.10;0.10;;;;;;;;;;4840145;29;20046;-86
2023/09/18 01:00:16;;;;;;;0.10;0.10;;;;;;;;;;4825161;29;20052;-87
2023/09/18 01:02:43;;;;;;;0.10;0.10;;;;;;;;;;4825901;29;20054;-87
2023/09/18 01:05:09;;;;;;;0.10;0.10;;;;;;;;;;4825034;29;20054;-86
2023/09/18 01:07:35;;;;;;;0.10;0.10;;;;;;;;;;4839877;29;20042;-87
2023/09/18 01:10:03;;;;;;;0.10;0.10;;;;;;;;;;4824834;29;20054;-87
2023/09/18 01:12:29;;;;;;;0.20;0.20;;;;;;;;;;4825163;29;20130;-87
2023/09/18 01:15:08;;;;;;;0.10;0.10;;;;;;;;;;4839865;29;20128;-87
2023/09/18 01:17:40;;;;;;;0.10;0.10;;;;;;;;;;4840124;29;20068;-87
2023/09/18 01:20:06;;;;;;;0.10;0.10;;;;;;;;;;4840049;29;20053;-85
2023/09/18 01:22:32;;;;;;;0.15;0.15;;;;;;;;;;4824855;29;20077;-86
2023/09/18 01:24:58;;;;;;;0.10;0.10;;;;;;;;;;4825058;29;20077;-85
2023/09/18 01:27:24;;;;;;;0.10;0.10;;;;;;;;;;4857816;29;20053;-86
2023/09/18 01:29:50;;;;;;;0.10;0.10;;;;;;;;;;4812594;29;20046;-86
2023/09/18 01:32:17;;;;;;;0.20;0.20;;;;;;;;;;4842846;29;20051;-86
2023/09/18 01:34:50;;;;;;;0.10;0.10;;;;;;;;;;4827712;29;20050;-86
2023/09/18 01:37:17;;;;;;;0.10;0.10;;;;;;;;;;4828055;29;20132;-87
2023/09/18 01:39:43;;;;;;;0.10;0.10;;;;;;;;;;4812581;29;20049;-86
2023/09/18 01:42:09;;;;;;;0.10;0.10;;;;;;;;;;4815121;29;20051;-86
2023/09/18 01:44:35;;;;;;;0.10;0.10;;;;;;;;;;4830842;29;20053;-86
2023/09/18 01:47:05;;;;;;;0.10;0.10;;;;;;;;;;4830766;29;20062;-86
2023/09/18 01:49:32;;;;;;;0.10;0.10;;;;;;;;;;4846444;29;20047;-86
2023/09/18 01:51:58;;;;;;;0.10;0.10;;;;;;;;;;4830988;29;20042;-86
2023/09/18 01:54:24;;;;;;;0.20;0.20;;;;;;;;;;4830711;29;20048;-85
2023/09/18 01:56:50;;;;;;;0.10;0.10;;;;;;;;;;4830834;29;20049;-85
2023/09/18 01:59:17;;;;;;;0.20;0.20;;;;;;;;;;4830682;29;20049;-85
2023/09/18 02:01:43;;;;;;;0.10;0.10;;;;;;;;;;4845800;29;20513;-85
2023/09/18 02:04:09;;;;;;;0.10;0.10;;;;;;;;;;4830372;29;20050;-85
2023/09/18 02:06:36;;;;;;;0.10;0.10;;;;;;;;;;4845642;29;20049;-87
2023/09/18 02:09:03;;;;;;;0.20;0.20;;;;;;;;;;4830534;29;20045;-86
2023/09/18 02:11:29;;;;;;;0.20;0.20;;;;;;;;;;4830999;29;20394;-86
2023/09/18 02:13:56;;;;;;;0.10;0.10;;;;;;;;;;4830616;29;20133;-86
2023/09/18 02:16:22;;;;;;;0.10;0.10;;;;;;;;;;4845511;29;20053;-86
2023/09/18 02:18:48;;;;;;;0.20;0.20;;;;;;;;;;4845495;29;20042;-86
2023/09/18 02:21:20;;;;;;;0.20;0.20;;;;;;;;;;4845731;29;20045;-86
2023/09/18 02:23:45;;;;;;;0.20;0.20;;;;;;;;;;4830397;29;20444;-86
2023/09/18 02:26:11;;;;;;;0.10;0.10;;;;;;;;;;4815102;29;20136;-86
2023/09/18 02:28:37;;;;;;;0.10;0.10;;;;;;;;;;4861960;29;20060;-86
2023/09/18 02:31:04;;;;;;;0.10;0.10;;;;;;;;;;4845402;29;20505;-86
2023/09/18 02:33:30;;;;;;;0.20;0.20;;;;;;;;;;4845378;29;20046;-86
2023/09/18 02:35:56;;;;;;;0.10;0.10;;;;;;;;;;4845248;29;20097;-85
2023/09/18 02:38:21;;;;;;;0.10;0.10;;;;;;;;;;4861788;29;20132;-86
2023/09/18 02:40:47;;;;;;;0.63;0.50;;;;;;;;;;4845455;29;20049;-86
2023/09/18 02:43:13;;;;;;;0.10;0.10;;;;;;;;;;4861754;29;20101;-85
2023/09/18 02:45:40;;;;;;;0.10;0.10;;;;;;;;;;4844902;29;20041;-85
2023/09/18 02:48:06;;;;;;;0.20;0.20;;;;;;;;;;4845115;29;20097;-86
2023/09/18 02:50:32;;;;;;;0.10;0.10;;;;;;;;;;4845289;29;20431;-86
2023/09/18 02:52:58;;;;;;;0.20;0.20;;;;;;;;;;4844034;29;20041;-86
2023/09/18 02:55:24;;;;;;;0.10;0.10;;;;;;;;;;4844861;29;20049;-87
2023/09/18 02:57:50;;;;;;;0.10;0.10;;;;;;;;;;4829680;29;20053;-86
2023/09/18 03:00:17;;;;;;;0.10;0.10;;;;;;;;;;4829616;29;20046;-86
2023/09/18 03:02:43;;;;;;;0.10;0.10;;;;;;;;;;4829721;29;20152;-86
2023/09/18 03:05:10;;;;;;;0.10;0.10;;;;;;;;;;4829675;29;20045;-87
2023/09/18 03:07:37;;;;;;;0.10;0.10;;;;;;;;;;4844814;29;20045;-85
2023/09/18 03:10:04;;;;;;;0.10;0.10;;;;;;;;;;4829882;29;20132;-85
2023/09/18 03:12:31;;;;;;;0.10;0.10;;;;;;;;;;4844586;29;20122;-85
2023/09/18 03:14:57;;;;;;;0.15;0.15;;;;;;;;;;4844497;29;20124;-86
2023/09/18 03:17:23;;;;;;;0.10;0.10;;;;;;;;;;4844512;29;20081;-85
2023/09/18 03:19:49;;;;;;;0.10;0.10;;;;;;;;;;4844582;29;20504;-86
2023/09/18 03:22:15;;;;;;;0.10;0.10;;;;;;;;;;4844431;29;20045;-86
2023/09/18 03:24:41;;;;;;;0.10;0.10;;;;;;;;;;4844356;29;20053;-85
2023/09/18 03:27:07;;;;;;;0.10;0.10;;;;;;;;;;4829210;29;20565;-86
2023/09/18 03:29:33;;;;;;;0.20;0.20;;;;;;;;;;4829539;29;20370;-86
2023/09/18 03:31:59;;;;;;;0.13;0.13;;;;;;;;;;4844244;29;20044;-87
2023/09/18 03:34:29;;;;;;;0.20;0.20;;;;;;;;;;4844352;29;20060;-86
2023/09/18 03:36:54;;;;;;;0.20;0.20;;;;;;;;;;4844344;29;20441;-86
2023/09/18 03:39:20;;;;;;;0.20;0.20;;;;;;;;;;4844108;29;20057;-87
2023/09/18 03:41:46;;;;;;;0.10;0.10;;;;;;;;;;4844023;29;20106;-88
2023/09/18 03:44:12;;;;;;;0.10;0.10;;;;;;;;;;4860759;29;20049;-88
2023/09/18 03:46:38;;;;;;;0.10;0.10;;;;;;;;;;4860678;29;20518;-87
2023/09/18 03:49:05;;;;;;;0.10;0.10;;;;;;;;;;4828980;29;20042;-87
2023/09/18 03:51:31;;;;;;;0.10;0.10;;;;;;;;;;4843889;29;20052;-87
2023/09/18 03:53:57;;;;;;;0.10;0.10;;;;;;;;;;4828868;29;20041;-88
2023/09/18 03:56:23;;;;;;;0.15;0.15;;;;;;;;;;4828697;29;20041;-87
2023/09/18 03:58:49;;;;;;;0.47;0.20;;;;;;;;;;4843779;29;20045;-88
2023/09/18 04:01:18;;;;;;;0.10;0.10;;;;;;;;;;4828745;29;20038;-88
2023/09/18 04:03:44;;;;;;;0.10;0.10;;;;;;;;;;4828404;29;20077;-87
2023/09/18 04:06:10;;;;;;;0.10;0.10;;;;;;;;;;4828989;29;20505;-87
2023/09/18 04:08:36;;;;;;;0.10;0.10;;;;;;;;;;4813551;29;20520;-87
2023/09/18 04:11:04;;;;;;;0.10;0.10;;;;;;;;;;4828488;29;20223;-87
2023/09/18 04:13:30;;;;;;;0.20;0.20;;;;;;;;;;4828756;29;20046;-87
2023/09/18 04:15:56;;;;;;;0.10;0.10;;;;;;;;;;4828477;29;20052;-87
2023/09/18 04:18:23;;;;;;;0.20;0.20;;;;;;;;;;4843599;29;20052;-87
2023/09/18 04:20:51;;;;;;;0.10;0.10;;;;;;;;;;4843557;29;20048;-87
2023/09/18 04:23:21;;;;;;;0.32;0.25;;;;;;;;;;4843558;29;20423;-87
2023/09/18 04:25:47;;;;;;;0.20;0.20;;;;;;;;;;4828354;29;20053;-87
2023/09/18 04:28:13;;;;;;;0.10;0.10;;;;;;;;;;4828418;29;20050;-88
2023/09/18 04:30:40;;;;;;;0.10;0.10;;;;;;;;;;4843729;29;20438;-87
2023/09/18 04:33:06;;;;;;;0.10;0.10;;;;;;;;;;4828231;29;20098;-87
2023/09/18 04:35:32;;;;;;;0.10;0.10;;;;;;;;;;4843252;29;20255;-87
2023/09/18 04:37:59;;;;;;;0.10;0.10;;;;;;;;;;4812947;29;20120;-87
2023/09/18 04:40:26;;;;;;;0.10;0.10;;;;;;;;;;4843281;29;20051;-87
2023/09/18 04:42:52;;;;;;;0.30;0.30;;;;;;;;;;4843295;29;20461;-86
2023/09/18 04:45:18;;;;;;;0.17;0.15;;;;;;;;;;4828243;29;20053;-86
2023/09/18 04:47:44;;;;;;;0.10;0.10;;;;;;;;;;4828097;29;20052;-87
2023/09/18 04:50:10;;;;;;;0.20;0.20;;;;;;;;;;4828347;29;20041;-86
2023/09/18 04:52:36;;;;;;;0.20;0.20;;;;;;;;;;4812876;29;20045;-86
2023/09/18 04:55:05;;;;;;;0.10;0.10;;;;;;;;;;4843335;29;20056;-86
2023/09/18 04:57:31;;;;;;;0.10;0.10;;;;;;;;;;4843154;29;20061;-85
2023/09/18 04:59:57;;;;;;;0.20;0.20;;;;;;;;;;4859951;29;20076;-86
2023/09/18 05:02:25;;;;;;;0.13;0.13;;;;;;;;;;4843221;29;20045;-85
2023/09/18 05:04:51;;;;;;;0.10;0.10;;;;;;;;;;4828144;29;20046;-86
2023/09/18 05:07:17;;;;;;;0.10;0.10;;;;;;;;;;4827746;29;20186;-85
2023/09/18 05:09:43;;;;;;;0.10;0.10;;;;;;;;;;4843453;29;20132;-86
2023/09/18 05:12:13;;;;;;;0.10;0.10;;;;;;;;;;4828129;29;20038;-86
2023/09/18 05:14:43;;;;;;;0.20;0.20;;;;;;;;;;4843924;29;20057;-86
2023/09/18 05:17:15;;;;;;;0.10;0.10;;;;;;;;;;4815701;29;20049;-86
2023/09/18 05:19:41;;;;;;;0.10;0.10;;;;;;;;;;4846739;29;20383;-86
2023/09/18 05:22:08;;;;;;;0.10;0.10;;;;;;;;;;4831118;29;20053;-86
2023/09/18 05:24:35;;;;;;;0.22;0.22;;;;;;;;;;4831142;29;20057;-86
2023/09/18 05:27:01;;;;;;;0.35;0.35;;;;;;;;;;4846325;29;20072;-87
2023/09/18 05:29:27;;;;;;;0.10;0.10;;;;;;;;;;4831206;29;20050;-86
2023/09/18 05:31:53;;;;;;;0.20;0.20;;;;;;;;;;4831002;29;20129;-87
2023/09/18 05:34:18;;;;;;;0.10;0.10;;;;;;;;;;4815850;29;20052;-87
2023/09/18 05:36:44;;;;;;;0.10;0.10;;;;;;;;;;4831146;29;20089;-87
2023/09/18 05:39:12;;;;;;;0.10;0.10;;;;;;;;;;4846351;29;20053;-87
2023/09/18 05:41:39;;;;;;;0.20;0.20;;;;;;;;;;4831204;29;20101;-87
2023/09/18 05:44:06;;;;;;;0.10;0.10;;;;;;;;;;4846375;29;20401;-87
2023/09/18 05:46:32;;;;;;;0.13;0.13;;;;;;;;;;4846070;29;20128;-86
2023/09/18 05:49:00;;;;;;;0.13;0.13;;;;;;;;;;4815359;29;20136;-85
2023/09/18 05:51:26;;;;;;;0.50;0.50;;;;;;;;;;4846377;29;20125;-86
2023/09/18 05:53:52;;;;;;;0.10;0.10;;;;;;;;;;4830939;29;20124;-85
2023/09/18 05:56:18;;;;;;;0.10;0.10;;;;;;;;;;4845881;29;20056;-85
2023/09/18 05:58:45;;;;;;;0.10;0.10;;;;;;;;;;4846114;29;20037;-86
2023/09/18 06:01:11;;;;;;;0.10;0.10;;;;;;;;;;4845849;29;20402;-86
2023/09/18 06:03:37;;;;;;;0.10;0.10;;;;;;;;;;4830672;29;20045;-86
2023/09/18 06:06:03;;;;;;;0.20;0.20;;;;;;;;;;4830875;29;20113;-87
2023/09/18 06:08:30;;;;;;;0.10;0.10;;;;;;;;;;4815479;29;20418;-87
2023/09/18 06:10:56;;;;;;;0.10;0.10;;;;;;;;;;4830339;29;20554;-87
2023/09/18 06:13:22;;;;;;;0.10;0.10;;;;;;;;;;4830415;29;20048;-88
2023/09/18 06:15:48;;;;;;;0.20;0.20;;;;;;;;;;4830307;29;20048;-87
2023/09/18 06:18:15;;;;;;;0.10;0.10;;;;;;;;;;4845632;29;20051;-87
2023/09/18 06:20:41;;;;;;;0.10;0.10;;;;;;;;;;4830352;29;20051;-87
2023/09/18 06:23:07;;;;;;;0.75;0.75;;;;;;;;;;4845524;29;20512;-88
2023/09/18 06:25:33;;;;;;;0.17;0.17;;;;;;;;;;4815227;29;20073;-86
2023/09/18 06:28:00;;;;;;;0.10;0.10;;;;;;;;;;4830206;29;20405;-85
2023/09/18 06:30:26;;;;;;;0.45;0.45;;;;;;;;;;4830263;29;20046;-87
2023/09/18 06:32:52;;;;;;;0.10;0.10;;;;;;;;;;4845358;29;20077;-86
2023/09/18 06:35:18;;;;;;;0.10;0.10;;;;;;;;;;4845614;29;20184;-87
2023/09/18 06:37:44;;;;;;;0.10;0.10;;;;;;;;;;4845534;29;20548;-87
2023/09/18 06:40:10;;;;;;;0.10;0.10;;;;;;;;;;4830465;29;20045;-89
2023/09/18 06:42:37;;;;;;;0.10;0.10;;;;;;;;;;4845713;29;20139;-89
2023/09/18 06:45:06;;;;;;;0.10;0.10;;;;;;;;;;4829790;29;20050;-89
2023/09/18 06:47:32;;;;;;;0.10;0.10;;;;;;;;;;4815121;29;20056;-89
2023/09/18 06:50:00;;;;;;;0.50;0.50;;;;;;;;;;4830038;29;20041;-87
2023/09/18 06:52:26;;;;;;;0.22;0.22;;;;;;;;;;4814902;29;20052;-89
2023/09/18 06:54:52;;;;;;;0.20;0.20;;;;;;;;;;4844927;29;20070;-87
2023/09/18 06:57:20;;;;;;;0.20;0.20;;;;;;;;;;4845053;29;20054;-88
2023/09/18 06:59:46;;;;;;;0.20;0.20;;;;;;;;;;4814919;29;20498;-87
2023/09/18 07:02:14;;;;;;;0.10;0.10;;;;;;;;;;4844957;29;20049;-85
2023/09/18 07:04:44;;;;;;;0.20;0.20;;;;;;;;;;4829446;29;20045;-83
2023/09/18 07:07:11;;;;;;;0.10;0.10;;;;;;;;;;4830163;29;20088;-84
2023/09/18 07:09:37;;;;;;;0.10;0.10;;;;;;;;;;4844705;29;20045;-84
2023/09/18 07:12:03;;;;;;;0.10;0.10;;;;;;;;;;4829326;29;20508;-85
2023/09/18 07:14:29;;;;;;;0.15;0.15;;;;;;;;;;4844438;29;20045;-85
2023/09/18 07:16:55;;;;;;;0.20;0.20;;;;;;;;;;4844599;29;20048;-85
2023/09/18 07:19:21;;;;;;;0.20;0.20;;;;;;;;;;4844857;29;20210;-84
2023/09/18 07:21:47;;;;;;;0.10;0.10;;;;;;;;;;4829437;29;20049;-85
2023/09/18 07:24:16;;;;;;;0.15;0.15;;;;;;;;;;4861050;29;20503;-84
2023/09/18 07:26:43;;;;;;;0.10;0.10;;;;;;;;;;4828961;29;20082;-85
2023/09/18 07:29:09;;;;;;;0.10;0.10;;;;;;;;;;4829094;29;20053;-85
2023/09/18 07:31:35;;;;;;;0.10;0.10;;;;;;;;;;4844388;29;20397;-85
2023/09/18 07:34:01;;;;;;;0.10;0.10;;;;;;;;;;4844150;29;20046;-85
2023/09/18 07:36:27;;;;;;;0.20;0.20;;;;;;;;;;4829112;29;20129;-85
2023/09/18 07:38:56;;;;;;;0.10;0.10;;;;;;;;;;4843839;29;20116;-86
2023/09/18 07:41:22;;;;;;;0.10;0.10;;;;;;;;;;4829557;29;20187;-85
2023/09/18 07:43:48;;;;;;;0.10;0.10;;;;;;;;;;4844064;29;20081;-85
2023/09/18 07:46:14;;;;;;;0.10;0.10;;;;;;;;;;4844027;29;20094;-86
2023/09/18 07:48:40;;;;;;;0.10;0.10;;;;;;;;;;4844315;29;20051;-86
2023/09/18 07:51:06;;;;;;;0.10;0.10;;;;;;;;;;4844307;29;20056;-86
2023/09/18 07:53:32;;;;;;;0.10;0.10;;;;;;;;;;4828897;29;20132;-86
2023/09/18 07:55:58;;;;;;;0.10;0.10;;;;;;;;;;4843918;29;20125;-86
2023/09/18 07:58:27;;;;;;;0.10;0.10;;;;;;;;;;4828804;29;20462;-86
2023/09/18 08:00:55;;;;;;;0.10;0.10;;;;;;;;;;4860631;29;20067;-85
2023/09/18 08:03:22;;;;;;;0.10;0.10;;;;;;;;;;4843854;29;20509;-85
2023/09/18 08:05:50;;;;;;;0.10;0.10;;;;;;;;;;4860312;29;20387;-86
2023/09/18 08:08:16;;;;;;;0.10;0.10;;;;;;;;;;4843632;29;20049;-86
2023/09/18 08:10:42;;;;;;;0.10;0.10;;;;;;;;;;4860223;29;20045;-86
2023/09/18 08:13:09;;;;;;;0.10;0.10;;;;;;;;;;4843679;29;20042;-86
2023/09/18 08:15:34;;;;;;;0.10;0.10;;;;;;;;;;4843835;29;20405;-85
2023/09/18 08:18:02;;;;;;;0.10;0.10;;;;;;;;;;4828609;29;20045;-85
2023/09/18 08:20:28;;;;;;;0.10;0.10;;;;;;;;;;4843517;29;20117;-86
2023/09/18 08:22:54;;;;;;;0.10;0.10;;;;;;;;;;4860855;29;20124;-87
2023/09/18 08:25:20;;;;;;;0.10;0.10;;;;;;;;;;4813609;29;20491;-87
2023/09/18 08:27:47;;;;;;;0.20;0.20;;;;;;;;;;4812993;29;20191;-87
2023/09/18 08:30:13;;;;;;;0.10;0.10;;;;;;;;;;4828435;29;20048;-86
2023/09/18 08:32:39;;;;;;;0.10;0.10;;;;;;;;;;4828350;29;20495;-87
2023/09/18 08:35:06;;;;;;;0.10;0.10;;;;;;;;;;4828083;29;20105;-87
2023/09/18 08:37:32;;;;;;;0.10;0.10;;;;;;;;;;4843376;29;20412;-85
2023/09/18 08:40:00;;;;;;;0.20;0.20;;;;;;;;;;4859948;29;20045;-86
2023/09/18 08:42:26;;;;;;;0.10;0.10;;;;;;;;;;4843372;29;20053;-84
2023/09/18 08:44:52;;;;;;;0.10;0.10;;;;;;;;;;4828526;29;20053;-84
2023/09/18 08:47:21;;;;;;;0.17;0.17;;;;;;;;;;4843256;29;20050;-84
2023/09/18 08:49:48;;;;;;;0.10;0.10;;;;;;;;;;4843431;29;20056;-85
2023/09/18 08:52:14;;;;;;;0.10;0.10;;;;;;;;;;4846224;29;20101;-84
2023/09/18 08:54:42;;;;;;;0.10;0.10;;;;;;;;;;4847103;29;20049;-85
2023/09/18 08:57:09;;;;;;;0.10;0.10;;;;;;;;;;4847084;29;20113;-85
2023/09/18 08:59:36;;;;;;;0.10;0.10;;;;;;;;;;4846771;29;20128;-86
2023/09/18 09:02:03;;;;;;;0.10;0.10;;;;;;;;;;4847662;29;20080;-86
2023/09/18 09:04:29;;;;;;;0.20;0.20;;;;;;;;;;4848089;29;20037;-86
2023/09/18 09:06:59;;;;;;;0.10;0.10;;;;;;;;;;4847990;29;20371;-87
2023/09/18 09:09:26;;;;;;;0.10;0.10;;;;;;;;;;4832383;29;20053;-87
2023/09/18 09:11:52;;;;;;;0.20;0.20;;;;;;;;;;4846684;29;20125;-88
2023/09/18 09:14:21;;;;;;;0.10;0.10;;;;;;;;;;4831571;29;20056;-88
2023/09/18 09:16:51;;;;;;;0.20;0.20;;;;;;;;;;4831797;29;20041;-88
2023/09/18 09:19:17;;;;;;;0.20;0.20;;;;;;;;;;4831263;29;20132;-88
2023/09/18 09:21:43;;;;;;;0.10;0.10;;;;;;;;;;4831309;29;20049;-87
2023/09/18 09:24:11;;;;;;;0.20;0.20;;;;;;;;;;4846562;29;20387;-86
2023/09/18 09:26:37;;;;;;;0.13;0.13;;;;;;;;;;4831221;29;20073;-87
2023/09/18 09:29:18;;;;;;;0.20;0.17;;;;;;;;;;4846256;29;20127;-87
2023/09/18 09:31:44;;;;;;;0.10;0.10;;;;;;;;;;4816115;29;20042;-87
2023/09/18 09:34:09;;;;;;;0.20;0.20;;;;;;;;;;4846264;29;20101;-91
2023/09/18 09:36:35;;;;;;;0.10;0.10;;;;;;;;;;4815792;29;20037;-86
2023/09/18 09:39:04;;;;;;;0.20;0.20;;;;;;;;;;4830920;29;20049;-87
2023/09/18 09:41:31;;;;;;;0.13;0.13;;;;;;;;;;4831174;29;20080;-86
2023/09/18 09:43:58;;;;;;;0.10;0.10;;;;;;;;;;4846177;29;20524;-86
2023/09/18 09:46:25;;;;;;;0.43;0.43;;;;;;;;;;4862501;29;20041;-86
2023/09/18 09:48:59;;;;;;;0.10;0.10;;;;;;;;;;4862939;29;20384;-86
2023/09/18 09:51:25;;;;;;;0.15;0.15;;;;;;;;;;4846022;29;20397;-86
2023/09/18 09:53:51;;;;;;;0.20;0.20;;;;;;;;;;4830965;29;20136;-86
2023/09/18 09:56:21;;;;;;;0.10;0.10;;;;;;;;;;4831380;29;20045;-86
2023/09/18 09:59:09;;;;;;;0.10;0.10;;;;;;;;;;4862603;29;20069;-86
2023/09/18 10:01:35;;;;;;;0.10;0.10;;;;;;;;;;4861586;29;20037;-87
2023/09/18 10:04:12;;;;;;;0.10;0.10;;;;;;;;;;4830270;29;20097;-87
2023/09/18 10:06:38;;;;;;;0.10;0.10;;;;;;;;;;4845383;29;20045;-86
2023/09/18 10:09:07;;;;;;;0.20;0.20;;;;;;;;;;4830488;29;20113;-86
2023/09/18 10:11:33;;;;;;;0.30;0.25;;;;;;;;;;4830402;29;20106;-85
2023/09/18 10:14:07;;;;;;;0.10;0.10;;;;;;;;;;4845623;29;20401;-85
2023/09/18 10:16:33;;;;;;;0.10;0.10;;;;;;;;;;4830517;29;20042;-84
2023/09/18 10:19:04;;;;;;;0.20;0.20;;;;;;;;;;4845725;29;20049;-84
2023/09/18 10:21:37;;;;;;;0.20;0.20;;;;;;;;;;4862238;29;20049;-84
2023/09/18 10:24:18;;;;;;;0.10;0.10;;;;;;;;;;4845739;29;20393;-84
2023/09/18 10:26:56;;;;;;;0.10;0.10;;;;;;;;;;4830198;29;20066;-84
2023/09/18 10:29:26;;;;;;;0.20;0.20;;;;;;;;;;4845404;29;20056;-84
2023/09/18 10:31:53;;;;;;;0.25;0.25;;;;;;;;;;4861835;29;20489;-84
2023/09/18 10:34:19;;;;;;;0.10;0.10;;;;;;;;;;4861725;29;20500;-84
2023/09/18 10:36:48;;;;;;;0.20;0.20;;;;;;;;;;4829973;29;20049;-84
2023/09/18 10:39:19;;;;;;;0.10;0.10;;;;;;;;;;4861934;29;20049;-85
2023/09/18 10:41:46;;;;;;;0.20;0.20;;;;;;;;;;4861908;29;20207;-86
2023/09/18 10:44:12;;;;;;;0.10;0.10;;;;;;;;;;4829935;29;20059;-85
2023/09/18 10:46:38;;;;;;;0.20;0.20;;;;;;;;;;4829976;29;20037;-86
2023/09/18 10:49:04;;;;;;;0.20;0.20;;;;;;;;;;4814880;29;20060;-85
2023/09/18 10:51:30;;;;;;;0.20;0.20;;;;;;;;;;4830170;29;20473;-85
2023/09/18 10:53:57;;;;;;;0.10;0.10;;;;;;;;;;4829741;29;20081;-85
2023/09/18 10:56:23;;;;;;;0.20;0.20;;;;;;;;;;4814750;29;20042;-85
2023/09/18 10:58:56;;;;;;;0.25;0.25;;;;;;;;;;4844884;29;20094;-84
2023/09/18 11:01:23;;;;;;;0.10;0.10;;;;;;;;;;4844752;29;20530;-85
2023/09/18 11:03:50;;;;;;;0.30;0.30;;;;;;;;;;4829428;29;20070;-85
2023/09/18 11:06:20;;;;;;;0.20;0.20;;;;;;;;;;4844809;29;20045;-84
2023/09/18 11:08:46;;;;;;;0.20;0.20;;;;;;;;;;4861267;29;20132;-84
2023/09/18 11:11:14;;;;;;;0.10;0.10;;;;;;;;;;4844425;29;20045;-85
2023/09/18 11:13:54;;;;;;;0.10;0.10;;;;;;;;;;4828310;29;20113;-85
2023/09/18 11:16:20;;;;;;;0.10;0.10;;;;;;;;;;4829925;29;20059;-85
2023/09/18 11:18:52;;;;;;;0.20;0.20;;;;;;;;;;4844361;29;20548;-85
2023/09/18 11:21:18;;;;;;;0.20;0.20;;;;;;;;;;4829896;29;20447;-85
2023/09/18 11:23:44;;;;;;;0.20;0.20;;;;;;;;;;4844222;29;20056;-85
2023/09/18 11:26:10;;;;;;;0.10;0.10;;;;;;;;;;4844388;29;20065;-84
2023/09/18 11:28:39;;;;;;;0.10;0.10;;;;;;;;;;4829473;29;20053;-85
2023/09/18 11:31:05;;;;;;;0.20;0.20;;;;;;;;;;4829451;29;20050;-85
2023/09/18 11:33:32;;;;;;;0.20;0.20;;;;;;;;;;4843928;29;20053;-85
2023/09/18 11:36:05;;;;;;;0.20;0.20;;;;;;;;;;4829191;29;20067;-85
2023/09/18 11:38:33;;;;;;;0.10;0.10;;;;;;;;;;4844084;29;20085;-84
2023/09/18 11:41:01;;;;;;;0.20;0.20;;;;;;;;;;4829134;29;20770;-84
2023/09/18 11:43:30;;;;;;;0.15;0.15;;;;;;;;;;4829136;29;20138;-84
2023/09/18 11:45:57;;;;;;;0.10;0.10;;;;;;;;;;4860425;29;20505;-85
2023/09/18 11:48:24;;;;;;;0.20;0.20;;;;;;;;;;4844026;29;20057;-84
2023/09/18 11:50:51;;;;;;;0.20;0.20;;;;;;;;;;4860513;29;20075;-85
2023/09/18 11:53:21;;;;;;;0.15;0.15;;;;;;;;;;4843930;29;20041;-84
2023/09/18 11:55:47;;;;;;;0.22;0.22;;;;;;;;;;4843855;29;20446;-85
2023/09/18 11:58:13;;;;;;;0.20;0.20;;;;;;;;;;4828676;29;20045;-84
2023/09/18 12:00:45;;;;;;;0.10;0.10;;;;;;;;;;4844223;29;20049;-84
2023/09/18 12:03:24;;;;;;;0.20;0.20;;;;;;;;;;4843734;29;20051;-84
2023/09/18 12:06:01;;;;;;;0.20;0.20;;;;;;;;;;4844593;29;20052;-85
2023/09/18 12:08:27;;;;;;;0.10;0.10;;;;;;;;;;4843619;29;20426;-84
2023/09/18 12:10:53;;;;;;;0.20;0.20;;;;;;;;;;4843277;29;20049;-84
2023/09/18 12:13:19;;;;;;;0.10;0.10;;;;;;;;;;4843397;29;20049;-85
2023/09/18 12:15:45;;;;;;;0.20;0.20;;;;;;;;;;4828467;29;20041;-84
2023/09/18 12:18:14;;;;;;;0.10;0.10;;;;;;;;;;4843517;29;20394;-85
2023/09/18 12:20:49;;;;;;;0.10;0.10;;;;;;;;;;4843091;29;20108;-85
2023/09/18 12:23:16;;;;;;;0.20;0.20;;;;;;;;;;4828105;29;20056;-86
2023/09/18 12:25:42;;;;;;;0.15;0.15;;;;;;;;;;4842943;29;20060;-85
2023/09/18 12:28:08;;;;;;;0.30;0.30;;;;;;;;;;4828154;29;20482;-85
2023/09/18 12:30:34;;;;;;;0.47;0.43;;;;;;;;;;4828209;29;20053;-85
2023/09/18 12:33:00;;;;;;;0.10;0.10;;;;;;;;;;4827998;29;20509;-85
2023/09/18 12:35:29;;;;;;;0.22;0.22;;;;;;;;;;4859639;29;20088;-85
2023/09/18 12:37:58;;;;;;;0.20;0.20;;;;;;;;;;4842957;29;20501;-85
2023/09/18 12:40:25;;;;;;;0.17;0.17;;;;;;;;;;4859818;29;20042;-85
2023/09/18 12:42:51;;;;;;;0.32;0.30;;;;;;;;;;4843498;29;20041;-85
2023/09/18 12:45:17;;;;;;;0.20;0.20;;;;;;;;;;4843032;29;20065;-85
2023/09/18 12:47:43;;;;;;;0.10;0.10;;;;;;;;;;4843105;29;20400;-85
2023/09/18 12:50:11;;;;;;;0.20;0.20;;;;;;;;;;4843451;29;20044;-85
2023/09/18 12:52:37;;;;;;;0.20;0.20;;;;;;;;;;4828549;29;20109;-85
2023/09/18 12:55:05;;;;;;;0.10;0.10;;;;;;;;;;4828019;29;20439;-84
2023/09/18 12:57:31;;;;;;;0.20;0.20;;;;;;;;;;4828240;29;20132;-85
2023/09/18 12:59:58;;;;;;;0.20;0.20;;;;;;;;;;4843023;29;20049;-85
2023/09/18 13:02:24;;;;;;;0.20;0.20;;;;;;;;;;4843341;29;20101;-84
2023/09/18 13:04:53;;;;;;;0.20;0.20;;;;;;;;;;4843065;29;20065;-84
2023/09/18 13:07:19;;;;;;;0.30;0.30;;;;;;;;;;4859594;29;20054;-84
2023/09/18 13:10:05;;;;;;;0.15;0.15;;;;;;;;;;4843247;29;20038;-84
2023/09/18 13:12:44;;;;;;;0.20;0.20;;;;;;;;;;4842945;29;20050;-85
2023/09/18 13:15:12;;;;;;;0.10;0.10;;;;;;;;;;4812941;29;20049;-85
2023/09/18 13:17:57;;;;;;;0.30;0.30;;;;;;;;;;4828091;29;20045;-85
2023/09/18 13:20:28;;;;;;;0.13;0.13;;;;;;;;;;4827727;29;20045;-85
2023/09/18 13:22:55;;;;;;;0.10;0.10;;;;;;;;;;4843744;29;20060;-84
2023/09/18 13:25:24;;;;;;;0.17;0.17;;;;;;;;;;4827683;29;20398;-85
2023/09/18 13:27:51;;;;;;;0.30;0.30;;;;;;;;;;4827594;29;20513;-85
2023/09/18 13:30:17;;;;;;;0.30;0.30;;;;;;;;;;4827438;29;20053;-85
2023/09/18 13:32:44;;;;;;;0.20;0.20;;;;;;;;;;4842992;29;20486;-85
2023/09/18 13:35:11;;;;;;;0.20;0.20;;;;;;;;;;4827880;29;20107;-85
2023/09/18 13:37:37;;;;;;;0.10;0.10;;;;;;;;;;4814219;29;20049;-85
2023/09/18 13:40:06;;;;;;;0.20;0.20;;;;;;;;;;4830897;29;20129;-86
2023/09/18 13:42:32;;;;;;;0.10;0.10;;;;;;;;;;4831136;29;20049;-90
2023/09/18 13:45:01;;;;;;;0.40;0.40;;;;;;;;;;4830722;29;20056;-87
2023/09/18 13:47:27;;;;;;;0.10;0.10;;;;;;;;;;4830723;29;20485;-87
2023/09/18 13:49:56;;;;;;;0.20;0.20;;;;;;;;;;4830567;29;20417;-86
2023/09/18 13:52:22;;;;;;;0.10;0.10;;;;;;;;;;4830421;29;20208;-86
2023/09/18 13:54:51;;;;;;;0.50;0.50;;;;;;;;;;4830304;29;20128;-87
2023/09/18 13:57:18;;;;;;;0.20;0.20;;;;;;;;;;4862604;29;20060;-86
2023/09/18 13:59:44;;;;;;;0.20;0.20;;;;;;;;;;4830977;29;20060;-87
2023/09/18 14:02:10;;;;;;;0.10;0.10;;;;;;;;;;4830603;29;20091;-86
2023/09/18 14:04:37;;;;;;;0.20;0.20;;;;;;;;;;4830186;29;20049;-86
2023/09/18 14:07:03;;;;;;;0.10;0.10;;;;;;;;;;4830476;29;20236;-88
2023/09/18 14:09:29;;;;;;;0.17;0.17;;;;;;;;;;4830565;29;20102;-87
2023/09/18 14:11:55;;;;;;;0.20;0.20;;;;;;;;;;4845620;29;20508;-87
2023/09/18 14:14:22;;;;;;;0.20;0.20;;;;;;;;;;4815303;29;20108;-87
2023/09/18 14:16:50;;;;;;;0.15;0.15;;;;;;;;;;4830253;29;20105;-88
2023/09/18 14:19:16;;;;;;;0.20;0.20;;;;;;;;;;4830480;29;20057;-85
2023/09/18 14:21:42;;;;;;;0.10;0.10;;;;;;;;;;4825281;29;20394;-85
2023/09/18 14:24:09;;;;;;;0.20;0.20;;;;;;;;;;4827004;29;20053;-86
2023/09/18 14:26:40;;;;;;;0.25;0.25;;;;;;;;;;4826678;29;20053;-86
2023/09/18 14:29:09;;;;;;;0.20;0.20;;;;;;;;;;4826733;29;20398;-86
2023/09/18 14:31:44;;;;;;;0.43;0.40;;;;;;;;;;4811694;29;20050;-85
2023/09/18 14:34:10;;;;;;;0.13;0.13;;;;;;;;;;4812047;29;20104;-86
2023/09/18 14:36:36;;;;;;;0.17;0.17;;;;;;;;;;4826712;29;20455;-85
2023/09/18 14:39:03;;;;;;;0.20;0.20;;;;;;;;;;4826767;29;20133;-86
2023/09/18 14:41:29;;;;;;;0.20;0.20;;;;;;;;;;4796885;29;20110;-86
2023/09/18 14:43:57;;;;;;;0.10;0.10;;;;;;;;;;4811901;29;20458;-86